Hovedside
METAR-TAF:

METAR-TAF

Lufthavner :

Kasane, Botswana

breddegrad: 17-49S, lengdegrad: 025-09E, høyde over havet: 968 m

Gjeldene værobservasjon

Denne rapporten ble laget for 1 time og 3 minutter siden, klokken 13:00 UTC
Vind 5 kt fra Nord-nordøst, skiftende mellom Nord-nordvest og Sørøst
Temperatur 29°C
Luftfuktighet 13%
Trykk 1021 hPa
Sikt 10 km eller mer
ingen skyer under 1500 m og ingen bygeskyer

METAR: FBKE 181300Z 03005KT 330V130 CAVOK 29/M02 Q1021

Tid: 16:03 (14:03 UTC)

Varsel

Denne rapporten ble laget for 5 timer og 3 minutter siden, klokken 09:00 UTC
Varsel gyldig fra 18. klokken 12 UTC til 18. klokken 21 UTC
Vind 5 kt fra Øst
Sikt 10 km eller mer
ingen skyer under 1500 m og ingen bygeskyer

TAF: FBKE 180900Z 1812/1821 09005KT CAVOK

Værobservasjoner og værvarsel for over 4000 flyplasser (METAR- og TAF-rapporter).

Tilgjengelige stasjoner er representert av de røde og gule prikkene på kartet.

Hold musepekeren over prikken for å se navnet på stasjonen.

Klikk så for å se værobservasjoner og -varsler.

For å forandre kartet kan du klikke på den grønne knappen med svart kryss for å zoome inn, på den grønne knappen med strek for å zoome ut, eller på de grønne pilene for å se tilstøtende kart.


METAR-TAF: